createdAt,value
2017-06-02T00:00:01.500Z,8.72
2017-06-02T00:02:29.831Z,7.00
2017-06-02T00:04:58.328Z,8.88
2017-06-02T00:07:26.672Z,14.12
2017-06-02T00:18:35.289Z,8.95
2017-06-02T00:21:03.627Z,12.75
2017-06-02T00:23:32.077Z,9.77
2017-06-02T00:26:00.756Z,8.67
2017-06-02T00:28:29.091Z,11.45
2017-06-02T00:30:57.444Z,9.97
2017-06-02T00:33:25.956Z,12.90
2017-06-02T00:35:54.328Z,10.43
2017-06-02T00:38:22.660Z,9.53
2017-06-02T00:40:51.329Z,9.50
2017-06-02T00:43:20.124Z,11.25
2017-06-02T00:45:48.454Z,11.23
2017-06-02T00:48:17.068Z,9.05
2017-06-02T00:50:45.396Z,11.60
2017-06-02T00:53:13.726Z,12.43
2017-06-02T00:55:42.099Z,14.47
2017-06-02T00:58:10.425Z,9.65
2017-06-02T01:00:38.761Z,12.47
2017-06-02T01:03:07.136Z,10.42
2017-06-02T01:05:34.697Z,15.50
2017-06-02T01:08:03.019Z,10.17
2017-06-02T01:10:31.865Z,10.42
2017-06-02T01:13:00.180Z,9.15
2017-06-02T01:15:28.533Z,10.63
2017-06-02T01:17:57.764Z,11.07
2017-06-02T01:20:26.096Z,10.98
2017-06-02T01:22:54.430Z,14.97
2017-06-02T01:25:22.788Z,11.02
2017-06-02T01:27:51.111Z,13.28
2017-06-02T01:30:19.612Z,19.03
2017-06-02T01:32:48.064Z,14.43
2017-06-02T01:35:16.395Z,14.03
2017-06-02T01:37:45.671Z,9.67
2017-06-02T01:40:14.220Z,10.55
2017-06-02T01:42:42.566Z,10.93
2017-06-02T01:45:10.887Z,8.92
2017-06-02T01:47:39.431Z,9.63
2017-06-02T01:50:07.784Z,12.27
2017-06-02T01:52:35.343Z,16.58
2017-06-02T01:55:03.812Z,15.90
2017-06-02T01:57:32.144Z,17.57
2017-06-02T02:00:00.556Z,12.60
2017-06-02T02:02:28.909Z,10.17
2017-06-02T02:04:57.260Z,10.55
2017-06-02T02:07:25.609Z,9.08
2017-06-02T02:09:54.161Z,10.27
2017-06-02T02:12:21.797Z,12.42
2017-06-02T02:14:50.113Z,9.90
2017-06-02T02:17:18.665Z,9.53
2017-06-02T02:19:46.992Z,13.28
2017-06-02T02:22:15.319Z,10.18
2017-06-02T02:24:43.797Z,9.72
2017-06-02T02:27:12.135Z,10.48
2017-06-02T02:29:40.459Z,10.92
2017-06-02T02:32:09.270Z,11.60
2017-06-02T02:34:37.596Z,9.50
2017-06-02T02:37:05.987Z,12.00
2017-06-02T02:39:34.492Z,10.35
2017-06-02T02:42:02.812Z,9.13
2017-06-02T02:44:31.142Z,10.38
2017-06-02T02:46:59.973Z,10.12
2017-06-02T02:49:28.338Z,10.32
2017-06-02T02:51:56.673Z,15.38
2017-06-02T02:54:25.211Z,10.03
2017-06-02T02:56:53.536Z,11.70
2017-06-02T02:59:21.109Z,19.75
2017-06-02T03:01:49.476Z,13.43
2017-06-02T03:04:17.868Z,12.40
2017-06-02T03:06:46.203Z,13.78
2017-06-02T03:09:14.581Z,23.62
2017-06-02T03:11:42.912Z,10.07
2017-06-02T03:14:11.239Z,9.85
2017-06-02T03:16:39.616Z,17.17
2017-06-02T03:19:07.944Z,9.78
2017-06-02T03:21:36.287Z,11.22
2017-06-02T03:24:05.034Z,9.88
2017-06-02T03:26:33.373Z,10.73
2017-06-02T03:29:01.714Z,12.03
2017-06-02T03:31:30.153Z,9.87
2017-06-02T03:33:58.488Z,16.48
2017-06-02T03:36:26.815Z,10.45
2017-06-02T03:38:55.312Z,9.20
2017-06-02T03:41:23.659Z,11.15
2017-06-02T03:43:51.992Z,14.72
2017-06-02T03:46:20.716Z,16.00
2017-06-02T03:48:49.046Z,13.75
2017-06-02T03:51:17.384Z,17.63
2017-06-02T03:53:45.769Z,16.70
2017-06-02T03:56:14.159Z,14.18
2017-06-02T03:58:42.484Z,11.48
2017-06-02T04:01:10.117Z,13.37
2017-06-02T04:03:38.452Z,12.12
2017-06-02T04:06:06.779Z,12.82
2017-06-02T04:08:35.423Z,17.52
2017-06-02T04:11:03.748Z,13.17
2017-06-02T04:13:32.080Z,11.23
2017-06-02T04:16:00.805Z,12.33
2017-06-02T04:18:29.128Z,15.90
2017-06-02T04:20:57.453Z,12.85
2017-06-02T04:23:25.824Z,13.78
2017-06-02T04:25:54.140Z,12.38
2017-06-02T04:28:22.467Z,13.88
2017-06-02T04:30:50.940Z,11.73
2017-06-02T04:33:19.259Z,13.17
2017-06-02T04:35:46.866Z,10.60
2017-06-02T04:38:15.532Z,10.82
2017-06-02T04:40:43.963Z,11.23
2017-06-02T04:43:11.517Z,10.77
2017-06-02T04:45:39.865Z,11.10
2017-06-02T04:48:08.196Z,19.48
2017-06-02T04:50:36.548Z,10.32
2017-06-02T04:53:04.988Z,11.23
2017-06-02T04:55:33.325Z,9.55
2017-06-02T04:58:01.656Z,14.03
2017-06-02T05:00:30.112Z,11.60
2017-06-02T05:02:58.444Z,8.57
2017-06-02T05:05:26.782Z,13.75
2017-06-02T05:07:55.132Z,7.52
2017-06-02T05:10:23.468Z,7.20
2017-06-02T05:12:51.792Z,8.47
2017-06-02T05:15:20.483Z,11.85
2017-06-02T05:17:48.801Z,6.98
2017-06-02T05:20:17.127Z,6.27
2017-06-02T05:22:45.506Z,5.60
2017-06-02T05:25:13.824Z,6.68
2017-06-02T05:27:42.151Z,9.95
2017-06-02T05:30:10.584Z,9.18
2017-06-02T05:32:38.906Z,6.38
2017-06-02T05:35:07.232Z,5.00
2017-06-02T05:37:35.982Z,5.43
2017-06-02T05:40:04.975Z,4.12
2017-06-02T05:42:33.320Z,3.47
2017-06-02T05:45:01.681Z,12.08
2017-06-02T05:47:30.013Z,3.47
2017-06-02T05:49:58.356Z,6.05
2017-06-02T05:52:26.823Z,6.13
2017-06-02T05:54:55.165Z,6.98
2017-06-02T05:57:23.497Z,3.23
2017-06-02T05:59:51.978Z,5.13
2017-06-02T06:02:20.301Z,5.48
2017-06-02T06:04:48.628Z,2.93
2017-06-02T06:07:17.254Z,5.07
2017-06-02T06:09:45.584Z,2.20
2017-06-02T06:12:13.912Z,6.90
2017-06-02T06:14:42.586Z,4.67
2017-06-02T06:17:10.916Z,3.23
2017-06-02T06:19:39.231Z,3.00
2017-06-02T06:22:07.828Z,3.72
2017-06-02T06:24:36.152Z,5.88
2017-06-02T06:27:04.479Z,3.93
2017-06-02T06:29:32.934Z,2.92
2017-06-02T06:32:01.256Z,2.30
2017-06-02T06:34:29.591Z,1.67
2017-06-02T06:36:58.061Z,1.40
2017-06-02T06:39:26.392Z,3.53
2017-06-02T06:41:54.716Z,1.92
2017-06-02T06:44:23.090Z,2.55
2017-06-02T06:46:51.417Z,1.50
2017-06-02T06:49:19.058Z,4.05
2017-06-02T06:51:47.755Z,4.10
2017-06-02T06:54:16.084Z,4.13
2017-06-02T06:56:44.433Z,2.75
2017-06-02T06:59:13.048Z,2.33
2017-06-02T07:01:41.387Z,5.97
2017-06-02T07:04:09.711Z,4.63
2017-06-02T07:06:38.168Z,2.18
2017-06-02T07:09:06.503Z,1.28
2017-06-02T07:11:34.831Z,3.85
2017-06-02T07:14:03.563Z,2.78
2017-06-02T07:16:31.886Z,2.00
2017-06-02T07:19:00.216Z,3.52
2017-06-02T07:21:28.088Z,1.47
2017-06-02T07:23:56.407Z,3.17
2017-06-02T07:26:24.736Z,1.95
2017-06-02T07:28:53.179Z,2.63
2017-06-02T07:31:21.506Z,2.63
2017-06-02T07:33:49.835Z,1.98
2017-06-02T07:36:18.281Z,1.30
2017-06-02T07:38:46.610Z,1.93
2017-06-02T07:41:14.951Z,1.05
2017-06-02T07:43:43.418Z,2.22
2017-06-02T07:46:11.747Z,5.72
2017-06-02T07:48:40.080Z,1.90
2017-06-02T07:51:08.789Z,2.80
2017-06-02T07:53:37.121Z,1.18
2017-06-02T07:56:05.447Z,3.97
2017-06-02T07:58:33.801Z,1.25
2017-06-02T08:01:02.142Z,1.85
2017-06-02T08:03:30.459Z,1.22
2017-06-02T08:05:58.999Z,1.43
2017-06-02T08:08:27.319Z,1.27
2017-06-02T08:10:55.644Z,1.93
2017-06-02T08:13:24.231Z,0.98
2017-06-02T08:15:52.564Z,1.50
2017-06-02T08:18:20.895Z,3.20
2017-06-02T08:20:49.413Z,2.02
2017-06-02T08:23:17.735Z,2.83
2017-06-02T08:25:46.062Z,2.40
2017-06-02T08:28:14.527Z,2.50
2017-06-02T08:30:42.845Z,1.13
2017-06-02T08:33:11.163Z,0.82
2017-06-02T08:35:39.524Z,1.62
2017-06-02T08:38:07.852Z,1.62
2017-06-02T08:40:36.176Z,1.25
2017-06-02T08:43:04.776Z,4.23
2017-06-02T08:45:33.104Z,0.72
2017-06-02T08:48:01.424Z,0.50
2017-06-02T08:50:30.619Z,2.05
2017-06-02T08:52:58.936Z,0.80
2017-06-02T08:55:27.260Z,1.97
2017-06-02T08:57:55.878Z,2.97
2017-06-02T09:00:24.195Z,1.25
2017-06-02T09:02:52.519Z,1.77
2017-06-02T09:05:20.280Z,1.23
2017-06-02T09:07:48.595Z,1.90
2017-06-02T09:10:16.928Z,1.53
2017-06-02T09:12:45.433Z,0.78
2017-06-02T09:15:13.763Z,5.27
2017-06-02T09:17:42.089Z,3.05
2017-06-02T09:20:10.661Z,3.22
2017-06-02T09:22:38.998Z,0.82
2017-06-02T09:25:07.320Z,0.85
2017-06-02T09:27:35.887Z,1.03
2017-06-02T09:30:04.233Z,0.72
2017-06-02T09:32:32.566Z,1.72
2017-06-02T09:35:01.138Z,2.72
2017-06-02T09:37:29.460Z,1.88
2017-06-02T09:39:57.795Z,2.05
2017-06-02T09:42:26.575Z,1.15
2017-06-02T09:44:54.140Z,7.82
2017-06-02T09:47:22.460Z,1.55
2017-06-02T09:49:51.095Z,3.88
2017-06-02T09:52:19.420Z,1.75
2017-06-02T09:54:47.741Z,2.55
2017-06-02T09:57:16.101Z,3.27
2017-06-02T09:59:44.440Z,3.15
2017-06-02T10:02:12.796Z,1.10
2017-06-02T10:04:41.471Z,1.18
2017-06-02T10:07:09.807Z,3.77
2017-06-02T10:09:38.141Z,2.60
2017-06-02T10:12:06.655Z,2.85
2017-06-02T10:14:34.220Z,1.93
2017-06-02T10:17:02.552Z,1.52
2017-06-02T10:19:31.008Z,0.85
2017-06-02T10:21:59.332Z,3.23
2017-06-02T10:24:27.679Z,1.30
2017-06-02T10:26:56.255Z,1.45
2017-06-02T10:29:24.587Z,3.17
2017-06-02T10:31:52.911Z,1.77
2017-06-02T10:34:21.488Z,3.60
2017-06-02T10:36:49.827Z,1.75
2017-06-02T10:39:18.157Z,1.92
2017-06-02T10:41:46.012Z,1.05
2017-06-02T10:44:14.357Z,1.43
2017-06-02T10:46:42.697Z,1.27
2017-06-02T10:49:10.406Z,3.45
2017-06-02T10:51:38.741Z,0.80
2017-06-02T10:54:07.069Z,1.22
2017-06-02T10:56:35.552Z,1.26
2017-06-02T10:59:03.879Z,1.72
2017-06-02T11:01:32.204Z,2.72
2017-06-02T11:04:00.576Z,1.08
2017-06-02T11:06:28.899Z,1.10
2017-06-02T11:08:57.230Z,2.84
2017-06-02T11:11:25.837Z,4.08
2017-06-02T11:13:54.171Z,2.30
2017-06-02T11:16:22.500Z,2.30
2017-06-02T11:18:50.884Z,4.14
2017-06-02T11:21:19.274Z,0.94
2017-06-02T11:23:47.738Z,1.62
2017-06-02T11:26:16.309Z,0.92
2017-06-02T11:28:44.645Z,1.30
2017-06-02T11:31:13.112Z,1.60
2017-06-02T11:33:41.501Z,1.50
2017-06-02T11:36:09.825Z,1.32
2017-06-02T11:38:38.157Z,1.10
2017-06-02T11:41:06.651Z,2.62
2017-06-02T11:43:34.980Z,2.28
2017-06-02T11:46:03.316Z,4.72
2017-06-02T11:48:31.915Z,2.08
2017-06-02T11:51:00.242Z,2.00
2017-06-02T11:53:28.571Z,2.00
2017-06-02T11:55:57.155Z,3.64
2017-06-02T11:58:25.480Z,1.00
2017-06-02T12:00:53.804Z,3.30
2017-06-02T12:03:22.183Z,3.82
2017-06-02T12:05:50.513Z,2.14
2017-06-02T12:08:18.843Z,3.70
2017-06-02T12:10:47.247Z,4.00
2017-06-02T12:13:15.568Z,2.24
2017-06-02T12:15:43.919Z,1.54
2017-06-02T12:18:12.458Z,2.60
2017-06-02T12:21:16.368Z,2.60
2017-06-02T12:23:43.958Z,3.67
2017-06-02T12:26:11.512Z,3.23
2017-06-02T12:28:39.832Z,2.77
2017-06-02T12:31:08.678Z,2.53
2017-06-02T12:33:36.998Z,4.70
2017-06-02T12:36:04.561Z,2.30
2017-06-02T12:38:32.175Z,3.83
2017-06-02T12:41:00.493Z,1.63
2017-06-02T12:43:28.051Z,4.67
2017-06-02T12:45:55.851Z,2.43
2017-06-02T12:48:23.399Z,1.80
2017-06-02T12:50:50.943Z,1.53
2017-06-02T12:53:18.738Z,1.70
2017-06-02T12:55:46.298Z,2.43
2017-06-02T12:58:13.845Z,2.00
2017-06-02T13:00:41.471Z,2.20
2017-06-02T13:03:09.031Z,2.17
2017-06-02T13:05:36.580Z,1.47
2017-06-02T13:08:04.171Z,1.37
2017-06-02T13:10:31.720Z,1.10
2017-06-02T13:12:59.268Z,2.20
2017-06-02T13:15:26.937Z,4.77
2017-06-02T13:17:54.488Z,2.07
2017-06-02T13:20:22.067Z,3.90
2017-06-02T13:22:49.660Z,9.63
2017-06-02T13:25:17.220Z,4.00
2017-06-02T13:27:44.779Z,2.73
2017-06-02T13:30:12.623Z,3.20
2017-06-02T13:32:40.183Z,1.00
2017-06-02T13:35:07.740Z,2.50
2017-06-02T13:37:35.482Z,2.07
2017-06-02T13:40:03.036Z,1.70
2017-06-02T13:42:30.590Z,2.93
2017-06-02T13:44:58.307Z,1.83
2017-06-02T13:47:25.967Z,2.60
2017-06-02T13:49:53.520Z,2.73
2017-06-02T13:52:21.397Z,1.30
2017-06-02T13:54:49.715Z,4.00
2017-06-02T13:57:17.269Z,2.30
2017-06-02T13:59:45.183Z,2.43
2017-06-02T14:02:13.647Z,1.13
2017-06-02T14:04:41.196Z,1.50
2017-06-02T14:07:08.827Z,2.60
2017-06-02T14:09:36.379Z,2.93
2017-06-02T14:12:03.935Z,2.77
2017-06-02T14:14:32.595Z,2.60
2017-06-02T14:17:00.139Z,6.47
2017-06-02T14:19:27.691Z,6.37
2017-06-02T14:21:55.389Z,2.50
2017-06-02T14:24:23.715Z,4.20
2017-06-02T14:26:51.282Z,3.00
2017-06-02T14:29:19.084Z,3.23
2017-06-02T14:31:46.644Z,2.90
2017-06-02T14:34:14.231Z,4.40
2017-06-02T14:36:41.980Z,2.77
2017-06-02T14:39:09.540Z,3.53
2017-06-02T14:41:37.702Z,1.90
2017-06-02T14:44:05.478Z,3.40
2017-06-02T14:46:33.827Z,1.40
2017-06-02T14:49:01.782Z,1.10
2017-06-02T14:51:29.764Z,1.80
2017-06-02T14:53:57.320Z,1.37
2017-06-02T14:56:24.899Z,1.67
2017-06-02T14:58:52.644Z,1.30
2017-06-02T15:01:20.213Z,5.80
2017-06-02T15:03:47.779Z,2.30
2017-06-02T15:06:15.514Z,2.70
2017-06-02T15:08:43.097Z,5.70
2017-06-02T15:11:11.437Z,1.33
2017-06-02T15:13:39.164Z,2.87
2017-06-02T15:16:06.728Z,3.33
2017-06-02T15:18:34.290Z,4.63
2017-06-02T15:21:02.010Z,2.83
2017-06-02T15:23:29.572Z,2.73
2017-06-02T15:25:57.127Z,4.00
2017-06-02T15:28:24.900Z,3.33
2017-06-02T15:30:53.251Z,6.40
2017-06-02T15:33:20.816Z,1.10
2017-06-02T15:35:48.525Z,2.40
2017-06-02T15:38:16.857Z,1.70
2017-06-02T15:40:44.407Z,5.13
2017-06-02T15:43:12.147Z,1.63
2017-06-02T15:45:39.691Z,2.00
2017-06-02T15:48:07.247Z,3.00
2017-06-02T15:50:35.076Z,2.93
2017-06-02T15:53:02.655Z,2.27
2017-06-02T15:55:30.968Z,2.73
2017-06-02T15:57:58.644Z,2.40
2017-06-02T16:00:26.200Z,2.37
2017-06-02T16:02:53.866Z,1.63
2017-06-02T16:05:21.876Z,1.57
2017-06-02T16:07:49.486Z,1.23
2017-06-02T16:10:17.104Z,2.60
2017-06-02T16:12:45.706Z,3.37
2017-06-02T16:15:13.311Z,2.10
2017-06-02T16:17:40.904Z,5.97
2017-06-02T16:20:09.355Z,2.50
2017-06-02T16:22:36.940Z,2.50
2017-06-02T16:25:04.492Z,3.13
2017-06-02T16:27:32.099Z,2.30
2017-06-02T16:29:59.739Z,1.33
2017-06-02T16:32:28.177Z,1.60
2017-06-02T16:34:55.813Z,0.77
2017-06-02T16:37:23.361Z,0.70
2017-06-02T16:39:50.979Z,2.43
2017-06-02T16:42:18.679Z,2.60
2017-06-02T16:44:46.267Z,0.93
2017-06-02T16:47:13.855Z,0.90
2017-06-02T16:49:41.559Z,0.80
2017-06-02T16:52:09.122Z,1.27
2017-06-02T16:54:36.692Z,0.70
2017-06-02T16:57:04.426Z,0.80
2017-06-02T16:59:32.779Z,1.57
2017-06-02T17:02:00.357Z,0.70
2017-06-02T17:04:29.023Z,0.70
2017-06-02T17:06:57.437Z,0.50
2017-06-02T17:09:25.004Z,0.80
2017-06-02T17:11:52.804Z,1.00
2017-06-02T17:14:20.460Z,1.37
2017-06-02T17:16:48.025Z,0.83
2017-06-02T17:19:15.785Z,1.83
2017-06-02T17:21:43.369Z,0.70
2017-06-02T17:24:10.953Z,0.80
2017-06-02T17:26:39.955Z,1.93
2017-06-02T17:29:07.521Z,0.90
2017-06-02T17:31:35.192Z,0.80
2017-06-02T17:34:03.297Z,0.90
2017-06-02T17:36:30.884Z,2.20
2017-06-02T17:38:59.219Z,0.70
2017-06-02T17:41:27.018Z,0.90
2017-06-02T17:43:55.368Z,0.77
2017-06-02T17:46:22.916Z,2.10
2017-06-02T17:48:50.505Z,0.70
2017-06-02T17:51:18.082Z,1.07
2017-06-02T17:53:46.417Z,2.47
2017-06-02T17:56:14.042Z,1.90
2017-06-02T17:58:41.727Z,0.60
2017-06-02T18:01:09.285Z,0.80
2017-06-02T18:03:36.901Z,1.33
2017-06-02T18:06:05.234Z,0.97
2017-06-02T18:08:32.975Z,0.80
2017-06-02T18:11:00.772Z,0.90
2017-06-02T18:13:28.335Z,1.73
2017-06-02T18:15:55.900Z,0.80
2017-06-02T18:18:25.411Z,0.93
2017-06-02T18:20:52.984Z,0.90
2017-06-02T18:23:21.324Z,1.75
2017-06-02T18:25:49.073Z,1.20
2017-06-02T18:28:16.628Z,1.30
2017-06-02T18:30:44.204Z,0.85
2017-06-02T18:33:12.030Z,0.83
2017-06-02T18:35:40.551Z,1.30
2017-06-02T18:38:08.128Z,1.12
2017-06-02T18:40:35.865Z,1.23
2017-06-02T18:43:03.442Z,0.90
2017-06-02T18:45:31.020Z,1.08
2017-06-02T18:47:58.788Z,2.45
2017-06-02T18:50:26.368Z,1.90
2017-06-02T18:52:53.931Z,1.17
2017-06-02T18:55:21.633Z,1.35
2017-06-02T18:57:49.205Z,2.83
2017-06-02T19:00:16.777Z,1.58
2017-06-02T19:02:44.483Z,1.60
2017-06-02T19:05:12.075Z,1.50
2017-06-02T19:07:39.750Z,1.25
2017-06-02T19:10:07.560Z,1.65
2017-06-02T19:12:35.143Z,1.83
2017-06-02T19:15:02.708Z,2.15
2017-06-02T19:17:35.153Z,2.17
2017-06-02T19:20:03.283Z,1.25
2017-06-02T19:22:30.845Z,0.85
2017-06-02T19:24:58.571Z,2.80
2017-06-02T19:27:38.205Z,1.73
2017-06-02T19:30:06.186Z,1.45
2017-06-02T19:32:33.769Z,4.00
2017-06-02T19:35:01.553Z,1.40
2017-06-02T19:37:29.311Z,1.60
2017-06-02T19:39:57.888Z,1.27
2017-06-02T19:42:25.497Z,1.35
2017-06-02T19:44:53.304Z,1.10
2017-06-02T19:47:20.940Z,1.73
2017-06-02T19:49:48.512Z,1.50
2017-06-02T19:52:16.205Z,1.33
2017-06-02T19:54:43.775Z,1.50
2017-06-02T19:57:11.350Z,1.25
2017-06-02T19:59:39.801Z,2.35
2017-06-02T20:02:07.370Z,2.30
2017-06-02T20:04:34.960Z,2.05
2017-06-02T20:07:02.713Z,4.05
2017-06-02T20:09:30.309Z,2.30
2017-06-02T20:11:57.892Z,2.12
2017-06-02T20:14:25.491Z,2.95
2017-06-02T20:16:53.238Z,2.90
2017-06-02T20:19:20.847Z,3.20
2017-06-02T20:21:48.482Z,3.25
2017-06-02T20:24:16.060Z,3.22
2017-06-02T20:26:43.634Z,3.10
2017-06-02T20:29:11.535Z,3.42
2017-06-02T20:31:39.104Z,3.90
2017-06-02T20:34:06.666Z,3.83
2017-06-02T20:36:34.360Z,3.72
2017-06-02T20:39:01.913Z,4.12
2017-06-02T20:41:30.257Z,8.30
2017-06-02T20:43:57.908Z,12.40
2017-06-02T20:46:25.476Z,3.80
2017-06-02T20:48:53.035Z,3.80
2017-06-02T20:51:20.659Z,4.10
2017-06-02T20:53:48.219Z,4.35
2017-06-02T20:56:15.808Z,4.60
2017-06-02T20:58:43.406Z,4.15
2017-06-02T21:01:12.007Z,6.07
2017-06-02T21:03:39.572Z,4.50
2017-06-02T21:06:07.306Z,4.53
2017-06-02T21:08:34.864Z,7.47
2017-06-02T21:11:02.423Z,6.15
2017-06-02T21:13:30.004Z,4.75
2017-06-02T21:15:57.557Z,5.35
2017-06-02T21:18:25.873Z,7.90
2017-06-02T21:20:53.783Z,6.18
2017-06-02T21:23:22.111Z,5.03
2017-06-02T21:25:49.661Z,5.32
2017-06-02T21:28:17.413Z,5.75
2017-06-02T21:30:44.967Z,9.48
2017-06-02T21:33:13.468Z,5.87
2017-06-02T21:35:41.068Z,5.60
2017-06-02T21:38:08.628Z,5.95
2017-06-02T21:40:36.183Z,5.07
2017-06-02T21:43:03.793Z,6.00
2017-06-02T21:45:31.352Z,5.78
2017-06-02T21:47:58.909Z,6.65
2017-06-02T21:50:26.668Z,6.95
2017-06-02T21:52:54.226Z,7.15
2017-06-02T21:55:21.796Z,6.03
2017-06-02T21:57:49.718Z,5.45
2017-06-02T22:00:17.320Z,5.97
2017-06-02T22:02:44.943Z,5.43
2017-06-02T22:05:12.681Z,6.25
2017-06-02T22:07:41.968Z,5.85
2017-06-02T22:10:09.536Z,5.53
2017-06-02T22:12:37.279Z,5.43
2017-06-02T22:15:04.856Z,5.47
2017-06-02T22:17:32.426Z,7.47
2017-06-02T22:20:00.173Z,6.95
2017-06-02T22:22:27.733Z,5.82
2017-06-02T22:24:55.279Z,6.37
2017-06-02T22:27:23.012Z,6.57
2017-06-02T22:29:51.337Z,6.10
2017-06-02T22:32:18.884Z,5.72
2017-06-02T22:34:46.616Z,6.20
2017-06-02T22:37:14.166Z,6.40
2017-06-02T22:39:42.485Z,6.07
2017-06-02T22:42:10.446Z,6.05
2017-06-02T22:44:38.018Z,6.28
2017-06-02T22:47:05.582Z,8.52
2017-06-02T22:49:33.200Z,6.15
2017-06-02T22:52:01.519Z,6.87
2017-06-02T22:54:29.084Z,7.95
2017-06-02T22:56:56.691Z,6.10
2017-06-02T22:59:25.005Z,6.70
2017-06-02T23:01:52.573Z,7.35
2017-06-02T23:04:20.272Z,6.72
2017-06-02T23:06:47.832Z,5.97
2017-06-02T23:09:15.419Z,6.30
2017-06-02T23:11:43.106Z,5.78
2017-06-02T23:14:10.664Z,7.25
2017-06-02T23:16:41.155Z,5.37
2017-06-02T23:19:08.866Z,6.22
2017-06-02T23:21:36.419Z,5.68
2017-06-02T23:24:03.980Z,6.30
2017-06-02T23:26:31.976Z,4.95
2017-06-02T23:28:59.532Z,5.65
2017-06-02T23:31:27.086Z,5.40
2017-06-02T23:33:54.808Z,6.07
2017-06-02T23:36:22.359Z,5.37
2017-06-02T23:38:49.930Z,5.82
2017-06-02T23:41:17.543Z,5.82
2017-06-02T23:43:45.118Z,5.90
2017-06-02T23:46:12.677Z,5.18
2017-06-02T23:48:40.387Z,6.55
2017-06-02T23:51:07.936Z,5.93
2017-06-02T23:53:35.497Z,5.22
2017-06-02T23:56:03.112Z,5.50
2017-06-02T23:58:31.432Z,5.22
